Time;durP1;ratioP1;P1;durP2;ratioP2;P2;SDS_P1;SDS_P2;PMS_P1;PMS_P2;Temp;Humidity;BMP_temperature;BMP_pressure;BME280_temperature;BME280_humidity;BME280_pressure;Samples;Min_cycle;Max_cycle;Signal;HPM_P1;HPM_P2
2021/03/08 00:02:02;;;;;;;11.30;10.20;;;4.50;99.90;;;;;;4963055;28;21384;-79
2021/03/08 00:04:29;;;;;;;13.48;12.18;;;4.50;99.90;;;;;;4959027;28;20244;-78
2021/03/08 00:06:55;;;;;;;12.45;11.25;;;4.50;99.90;;;;;;4966340;28;20225;-79
2021/03/08 00:09:22;;;;;;;11.43;10.38;;;4.40;99.90;;;;;;4960705;28;20268;-80
2021/03/08 00:11:49;;;;;;;12.02;10.88;;;4.40;99.90;;;;;;4960264;28;20608;-79
2021/03/08 00:14:16;;;;;;;12.43;9.80;;;4.40;99.90;;;;;;4960381;28;20245;-78
2021/03/08 00:16:43;;;;;;;10.57;9.65;;;4.40;99.90;;;;;;4964643;28;20225;-80
2021/03/08 00:19:09;;;;;;;11.77;10.73;;;4.40;99.90;;;;;;4959178;28;20233;-79
2021/03/08 00:21:36;;;;;;;10.90;9.80;;;4.40;99.90;;;;;;4964794;28;20225;-78
2021/03/08 00:24:03;;;;;;;12.25;11.07;;;4.50;99.90;;;;;;4962089;28;20233;-79
2021/03/08 00:26:30;;;;;;;11.23;10.13;;;4.50;99.90;;;;;;4965992;28;20236;-79
2021/03/08 00:28:58;;;;;;;10.43;9.52;;;4.50;99.90;;;;;;4960688;28;20229;-79
2021/03/08 00:31:24;;;;;;;11.35;10.25;;;4.50;99.90;;;;;;4963346;28;20225;-79
2021/03/08 00:33:51;;;;;;;12.43;11.13;;;4.50;99.90;;;;;;4960030;28;20229;-79
2021/03/08 00:36:17;;;;;;;11.77;10.68;;;4.40;99.90;;;;;;4964816;28;20229;-79
2021/03/08 00:38:44;;;;;;;10.90;9.90;;;4.40;99.90;;;;;;4961502;28;20213;-79
2021/03/08 00:41:11;;;;;;;11.88;10.68;;;4.30;99.90;;;;;;4962039;28;20228;-79
2021/03/08 00:43:37;;;;;;;10.93;9.93;;;4.30;99.90;;;;;;4961642;28;20229;-79
2021/03/08 00:46:05;;;;;;;10.25;9.35;;;4.30;99.90;;;;;;4962820;28;20233;-79
2021/03/08 00:48:32;;;;;;;11.10;10.10;;;4.30;99.90;;;;;;4964085;28;20226;-79
2021/03/08 00:50:58;;;;;;;10.50;9.50;;;4.30;99.90;;;;;;4958839;28;20695;-79
2021/03/08 00:53:25;;;;;;;10.15;9.25;;;4.30;99.90;;;;;;4963610;28;20751;-79
2021/03/08 00:55:51;;;;;;;11.48;10.45;;;4.30;99.90;;;;;;4956808;28;20699;-79
2021/03/08 00:58:18;;;;;;;11.30;10.30;;;4.30;99.90;;;;;;4962836;28;20227;-79
2021/03/08 01:00:44;;;;;;;11.05;10.05;;;4.30;99.90;;;;;;4958574;28;20260;-79
2021/03/08 01:03:12;;;;;;;11.75;10.65;;;4.30;99.90;;;;;;4960983;28;20229;-79
2021/03/08 01:05:39;;;;;;;11.75;10.75;;;4.30;99.90;;;;;;4966124;28;20230;-79
2021/03/08 01:08:06;;;;;;;12.20;10.95;;;4.20;99.90;;;;;;4962886;28;20713;-79
2021/03/08 01:10:33;;;;;;;11.32;10.23;;;4.10;99.90;;;;;;4961471;28;20248;-79
2021/03/08 01:12:59;;;;;;;12.55;11.35;;;4.00;99.90;;;;;;4963100;28;20221;-78
2021/03/08 01:15:26;;;;;;;11.73;10.60;;;3.90;99.90;;;;;;4963127;28;20229;-80
2021/03/08 01:17:53;;;;;;;14.35;12.95;;;3.70;99.90;;;;;;4963884;28;20251;-79
2021/03/08 01:20:21;;;;;;;12.27;11.18;;;3.50;99.90;;;;;;4966313;28;20287;-79
2021/03/08 01:22:49;;;;;;;11.50;10.40;;;3.30;99.90;;;;;;4968902;28;20296;-79
2021/03/08 01:25:18;;;;;;;11.98;10.85;;;3.30;99.90;;;;;;4969488;28;20651;-79
2021/03/08 01:27:44;;;;;;;11.88;10.77;;;3.40;99.90;;;;;;4967486;28;20232;-79
2021/03/08 01:30:14;;;;;;;10.55;9.55;;;3.40;99.90;;;;;;4962894;28;20236;-80
2021/03/08 01:32:40;;;;;;;11.50;10.50;;;3.40;99.90;;;;;;4969607;28;20280;-80
2021/03/08 01:35:08;;;;;;;11.73;10.52;;;3.50;99.90;;;;;;4967933;28;20249;-78
2021/03/08 01:37:36;;;;;;;12.65;11.45;;;3.40;99.90;;;;;;4970645;28;20280;-79
2021/03/08 01:40:06;;;;;;;12.20;11.10;;;3.40;99.90;;;;;;4967024;28;20292;-78
2021/03/08 01:42:33;;;;;;;12.40;11.20;;;3.40;99.90;;;;;;4967856;28;20237;-79
2021/03/08 01:44:59;;;;;;;12.25;11.05;;;3.50;99.90;;;;;;4969611;28;20222;-79
2021/03/08 01:47:26;;;;;;;11.02;10.05;;;3.50;99.90;;;;;;4967577;28;20225;-79
2021/03/08 01:49:53;;;;;;;11.63;10.52;;;3.50;99.90;;;;;;4969225;28;20225;-79
2021/03/08 01:52:20;;;;;;;11.55;10.45;;;3.50;99.90;;;;;;4963832;28;20252;-79
2021/03/08 01:54:47;;;;;;;11.18;10.07;;;3.50;99.90;;;;;;4968187;28;20229;-78
2021/03/08 01:57:14;;;;;;;11.82;10.63;;;3.40;99.90;;;;;;4969633;28;20232;-79
2021/03/08 01:59:41;;;;;;;12.60;11.40;;;3.40;99.90;;;;;;4965000;28;20232;-79
2021/03/08 02:02:08;;;;;;;11.43;10.23;;;3.40;99.90;;;;;;4968800;28;20240;-79
2021/03/08 02:04:35;;;;;;;12.77;11.48;;;3.40;99.90;;;;;;4965460;28;20876;-79
2021/03/08 02:07:02;;;;;;;11.95;10.85;;;3.40;99.90;;;;;;4967796;28;20217;-79
2021/03/08 02:09:28;;;;;;;12.00;10.82;;;3.40;99.90;;;;;;4968526;28;20730;-79
2021/03/08 02:12:04;;;;;;;12.35;10.57;;;3.30;99.90;;;;;;4961910;28;20607;-78
2021/03/08 02:14:45;;;;;;;11.25;10.25;;;3.30;99.90;;;;;;4966537;28;20303;-79
2021/03/08 02:17:16;;;;;;;11.30;10.27;;;3.30;99.90;;;;;;4968533;28;20225;-80
2021/03/08 02:20:18;;;;;;;11.70;10.60;;;3.30;99.90;;;;;;4970993;28;20225;-79
2021/03/08 02:23:13;;;;;;;12.57;11.35;;;3.30;99.90;;;;;;4967783;28;20232;-78
2021/03/08 02:26:16;;;;;;;13.00;11.63;;;3.30;99.90;;;;;;4967090;28;20598;-80
2021/03/08 02:29:04;;;;;;;11.88;10.77;;;3.30;99.90;;;;;;4964224;28;20220;-79
2021/03/08 02:31:33;;;;;;;12.27;11.02;;;3.30;99.90;;;;;;4963218;28;20225;-79
2021/03/08 02:34:04;;;;;;;11.80;10.70;;;3.30;99.90;;;;;;4961405;28;20221;-79
2021/03/08 02:36:36;;;;;;;12.73;11.43;;;3.20;99.90;;;;;;4967150;28;20229;-79
2021/03/08 02:39:09;;;;;;;11.48;10.48;;;3.30;99.90;;;;;;4965842;28;20264;-79
2021/03/08 02:41:36;;;;;;;10.93;10.00;;;3.30;99.90;;;;;;4966692;28;20225;-79
2021/03/08 02:44:07;;;;;;;11.77;10.63;;;3.30;99.90;;;;;;4967966;28;20237;-79
2021/03/08 02:46:36;;;;;;;10.52;9.57;;;3.30;99.90;;;;;;4969108;28;20283;-78
2021/03/08 02:49:06;;;;;;;12.57;11.38;;;3.40;99.90;;;;;;4968772;28;20310;-78
2021/03/08 02:51:38;;;;;;;12.15;11.05;;;3.40;99.90;;;;;;4964818;28;20237;-79
2021/03/08 02:54:07;;;;;;;11.50;10.40;;;3.30;99.90;;;;;;4965712;28;20272;-80
2021/03/08 02:56:36;;;;;;;10.70;9.70;;;3.30;99.90;;;;;;4966993;28;20283;-79
2021/03/08 02:59:05;;;;;;;11.10;10.10;;;3.30;99.90;;;;;;4964186;28;20233;-79
2021/03/08 03:01:34;;;;;;;11.73;10.63;;;3.30;99.90;;;;;;4967693;28;21117;-79
2021/03/08 03:04:02;;;;;;;10.65;9.65;;;3.30;99.90;;;;;;4968156;28;20225;-80
2021/03/08 03:06:33;;;;;;;11.07;9.98;;;3.20;99.90;;;;;;4970007;28;20300;-79
2021/03/08 03:09:01;;;;;;;13.38;11.40;;;3.20;99.90;;;;;;4967149;28;20742;-79
2021/03/08 03:11:28;;;;;;;11.10;10.10;;;3.20;99.90;;;;;;4966050;28;20623;-79
2021/03/08 03:13:56;;;;;;;12.52;11.23;;;3.10;99.90;;;;;;4964262;28;20703;-79
2021/03/08 03:16:23;;;;;;;12.45;11.25;;;3.10;99.90;;;;;;4968056;28;20241;-78
2021/03/08 03:18:53;;;;;;;11.60;10.32;;;3.10;99.90;;;;;;4966789;28;20241;-79
2021/03/08 03:21:24;;;;;;;12.20;11.02;;;3.10;99.90;;;;;;4961284;28;20237;-79
2021/03/08 03:23:53;;;;;;;12.55;11.30;;;3.10;99.90;;;;;;4966775;28;20218;-79
2021/03/08 03:26:21;;;;;;;11.77;10.68;;;3.10;99.90;;;;;;4965721;28;20251;-79
2021/03/08 03:28:49;;;;;;;12.32;11.13;;;3.10;99.90;;;;;;4967241;28;20245;-79
2021/03/08 03:31:17;;;;;;;12.27;11.13;;;3.10;99.90;;;;;;4964702;28;20244;-79
2021/03/08 03:33:45;;;;;;;12.55;11.25;;;3.10;99.90;;;;;;4967450;28;20292;-78
2021/03/08 03:36:12;;;;;;;12.82;11.52;;;3.10;99.90;;;;;;4963639;28;20232;-79
2021/03/08 03:38:41;;;;;;;12.30;11.20;;;3.10;99.90;;;;;;4967473;28;20245;-80
2021/03/08 03:41:08;;;;;;;12.02;10.93;;;3.00;99.90;;;;;;4966583;28;20240;-79
2021/03/08 03:43:36;;;;;;;13.00;11.70;;;3.00;99.90;;;;;;4965368;28;20229;-79
2021/03/08 03:46:04;;;;;;;11.45;10.35;;;2.90;99.90;;;;;;4959395;28;20279;-79
2021/03/08 03:48:31;;;;;;;12.70;11.50;;;2.90;99.90;;;;;;4965177;28;20222;-79
2021/03/08 03:50:58;;;;;;;11.80;10.70;;;2.90;99.90;;;;;;4968058;28;20221;-79
2021/03/08 03:53:24;;;;;;;11.43;10.43;;;2.90;99.90;;;;;;4962606;28;20291;-79
2021/03/08 03:55:53;;;;;;;12.73;11.45;;;2.80;99.90;;;;;;4963067;28;20814;-79
2021/03/08 03:58:25;;;;;;;11.77;10.68;;;2.80;99.90;;;;;;4965782;28;20232;-79
2021/03/08 04:00:57;;;;;;;12.10;11.00;;;2.80;99.90;;;;;;4960406;28;20233;-79
2021/03/08 04:03:29;;;;;;;12.07;10.82;;;2.80;99.90;;;;;;4966628;28;20217;-79
2021/03/08 04:05:58;;;;;;;11.65;10.45;;;2.80;99.90;;;;;;4962783;28;20236;-78
2021/03/08 04:08:26;;;;;;;11.30;10.23;;;2.90;99.90;;;;;;4962645;28;20696;-78
2021/03/08 04:10:57;;;;;;;12.45;11.15;;;2.90;99.90;;;;;;4962997;28;20225;-80
2021/03/08 04:13:29;;;;;;;12.35;11.15;;;2.90;99.90;;;;;;4949875;28;20699;-79
2021/03/08 04:15:57;;;;;;;12.98;11.68;;;2.80;99.90;;;;;;4964515;28;20240;-79
2021/03/08 04:18:25;;;;;;;11.63;10.52;;;2.80;99.90;;;;;;4967239;28;20225;-78
2021/03/08 04:20:57;;;;;;;11.27;10.20;;;2.80;99.90;;;;;;4956587;28;20233;-79
2021/03/08 04:23:25;;;;;;;11.88;10.68;;;2.70;99.90;;;;;;4966322;28;20225;-79
2021/03/08 04:25:52;;;;;;;12.52;11.32;;;2.70;99.90;;;;;;4959186;28;20303;-79
2021/03/08 04:28:21;;;;;;;12.48;11.38;;;2.70;99.90;;;;;;4967889;28;20324;-79
2021/03/08 04:30:48;;;;;;;12.05;10.88;;;2.70;99.90;;;;;;4964436;28;20236;-78
2021/03/08 04:33:16;;;;;;;12.02;10.90;;;2.60;99.90;;;;;;4960446;28;20229;-79
2021/03/08 04:35:45;;;;;;;11.98;10.63;;;2.60;99.90;;;;;;4959603;28;20217;-78
2021/03/08 04:38:12;;;;;;;11.85;10.68;;;2.60;99.90;;;;;;4955454;28;20704;-79
2021/03/08 04:40:40;;;;;;;11.88;10.77;;;2.60;99.90;;;;;;4956257;28;20225;-79
2021/03/08 04:43:08;;;;;;;10.82;9.82;;;2.70;99.90;;;;;;4965189;28;20224;-79
2021/03/08 04:45:38;;;;;;;11.63;10.57;;;2.70;99.90;;;;;;4964369;28;20229;-78
2021/03/08 04:48:05;;;;;;;10.93;9.82;;;2.70;99.90;;;;;;4965673;28;20228;-79
2021/03/08 04:50:33;;;;;;;13.20;11.93;;;2.60;99.90;;;;;;4963533;28;21206;-79
2021/03/08 04:53:00;;;;;;;12.00;10.90;;;2.60;99.90;;;;;;4968309;28;20229;-78
2021/03/08 04:55:30;;;;;;;11.77;10.65;;;2.60;99.90;;;;;;4970064;28;20236;-79
2021/03/08 04:57:56;;;;;;;12.20;11.00;;;2.50;99.90;;;;;;4969274;28;20240;-79
2021/03/08 05:00:24;;;;;;;12.55;11.35;;;2.50;99.90;;;;;;4967237;28;20229;-80
2021/03/08 05:02:55;;;;;;;12.63;11.52;;;2.50;99.90;;;;;;4967988;28;20232;-79
2021/03/08 05:05:24;;;;;;;10.52;9.55;;;2.50;99.90;;;;;;4968689;28;20240;-78
2021/03/08 05:07:56;;;;;;;11.88;10.68;;;2.50;99.90;;;;;;4968645;28;20221;-79
2021/03/08 05:10:26;;;;;;;11.60;10.50;;;2.50;99.90;;;;;;4968124;28;20223;-79
2021/03/08 05:12:54;;;;;;;12.98;11.68;;;2.50;99.90;;;;;;4967066;28;20943;-78
2021/03/08 05:15:24;;;;;;;11.82;10.73;;;2.50;99.90;;;;;;4968046;28;20226;-78
2021/03/08 05:17:54;;;;;;;12.80;11.50;;;2.50;99.90;;;;;;4951129;28;20232;-79
2021/03/08 05:20:22;;;;;;;13.25;11.95;;;2.50;99.90;;;;;;4969148;28;20280;-79
2021/03/08 05:22:49;;;;;;;14.60;13.15;;;2.50;99.90;;;;;;4960329;28;20600;-79
2021/03/08 05:25:16;;;;;;;13.00;11.75;;;2.50;99.90;;;;;;4964724;28;20244;-79
2021/03/08 05:27:45;;;;;;;12.73;11.40;;;2.50;99.90;;;;;;4968740;28;20217;-78
2021/03/08 05:30:16;;;;;;;11.70;10.70;;;2.50;99.90;;;;;;4962723;28;20225;-79
2021/03/08 05:32:49;;;;;;;12.60;11.35;;;2.50;99.90;;;;;;4968102;28;20617;-79
2021/03/08 05:35:17;;;;;;;12.70;11.45;;;2.60;99.90;;;;;;4965082;28;20634;-79
2021/03/08 05:37:44;;;;;;;12.27;11.18;;;2.60;99.90;;;;;;4968107;28;20229;-79
2021/03/08 05:40:22;;;;;;;11.43;10.43;;;2.50;99.90;;;;;;4968084;28;20225;-78
2021/03/08 05:42:58;;;;;;;10.77;9.77;;;2.50;99.90;;;;;;4967610;28;20264;-79
2021/03/08 05:45:27;;;;;;;12.00;10.90;;;2.50;99.90;;;;;;4964264;28;21107;-79
2021/03/08 05:48:32;;;;;;;12.10;11.00;;;2.50;99.90;;;;;;4967145;28;20221;-78
2021/03/08 05:51:32;;;;;;;11.93;10.73;;;2.50;99.90;;;;;;4965962;28;20229;-78
2021/03/08 05:54:44;;;;;;;11.85;10.70;;;2.50;99.90;;;;;;4961879;28;20574;-79
2021/03/08 05:57:26;;;;;;;11.93;10.82;;;2.50;99.90;;;;;;4966728;28;20232;-78
2021/03/08 06:00:17;;;;;;;10.32;9.43;;;2.40;99.90;;;;;;4958251;28;20737;-78
2021/03/08 06:02:55;;;;;;;12.52;11.38;;;2.40;99.90;;;;;;4947025;28;20229;-78
2021/03/08 06:06:04;;;;;;;12.88;11.70;;;2.40;99.90;;;;;;4965239;28;20253;-78
2021/03/08 06:09:29;;;;;;;11.02;9.90;;;2.40;99.90;;;;;;4965643;28;20401;-79
2021/03/08 06:12:01;;;;;;;11.45;10.32;;;2.40;99.90;;;;;;4962873;28;20213;-79
2021/03/08 06:14:35;;;;;;;12.18;11.07;;;2.40;99.90;;;;;;4967005;28;20213;-78
2021/03/08 06:17:02;;;;;;;12.48;11.25;;;2.50;99.90;;;;;;4964173;28;20222;-79
2021/03/08 06:19:30;;;;;;;12.23;11.13;;;2.50;99.90;;;;;;4954755;28;20500;-78
2021/03/08 06:21:58;;;;;;;11.32;10.32;;;2.50;99.90;;;;;;4965733;28;20229;-78
2021/03/08 06:24:27;;;;;;;10.63;9.60;;;2.50;99.90;;;;;;4964802;28;20241;-78
2021/03/08 06:26:55;;;;;;;10.63;9.73;;;2.50;99.90;;;;;;4965244;28;20310;-79
2021/03/08 06:29:23;;;;;;;10.38;9.48;;;2.60;99.90;;;;;;4960545;28;20248;-78
2021/03/08 06:31:51;;;;;;;11.13;9.90;;;2.60;99.90;;;;;;4957592;28;20260;-78
2021/03/08 06:34:18;;;;;;;9.48;8.60;;;2.70;99.90;;;;;;4961282;28;20250;-79
2021/03/08 06:36:45;;;;;;;10.38;9.40;;;2.70;99.90;;;;;;4958637;28;20260;-78
2021/03/08 06:39:12;;;;;;;10.40;9.40;;;2.80;99.90;;;;;;4959175;28;20265;-77
2021/03/08 06:41:40;;;;;;;10.63;9.57;;;2.90;99.90;;;;;;4960065;28;20229;-78
2021/03/08 06:44:08;;;;;;;10.40;9.50;;;3.00;99.90;;;;;;4961987;28;20222;-78
2021/03/08 06:46:35;;;;;;;10.40;9.50;;;3.40;99.90;;;;;;4958619;28;20226;-78
2021/03/08 06:49:02;;;;;;;11.60;10.45;;;3.50;99.90;;;;;;4959616;28;20217;-79
2021/03/08 06:51:29;;;;;;;12.32;11.23;;;3.70;99.90;;;;;;4963258;28;20221;-79
2021/03/08 06:53:56;;;;;;;12.32;11.13;;;4.00;99.90;;;;;;4958587;28;20236;-78
2021/03/08 06:56:24;;;;;;;12.43;11.23;;;4.50;99.90;;;;;;4967349;28;20707;-79
2021/03/08 06:59:07;;;;;;;12.02;10.93;;;5.00;99.90;;;;;;4960202;28;20590;-77
2021/03/08 07:01:34;;;;;;;12.30;11.10;;;5.50;99.90;;;;;;4953718;28;20265;-78
2021/03/08 07:04:02;;;;;;;12.55;11.30;;;5.90;99.90;;;;;;4957743;28;20229;-77
2021/03/08 07:06:29;;;;;;;11.98;10.77;;;6.20;99.90;;;;;;4954151;28;20230;-77
2021/03/08 07:09:07;;;;;;;11.30;10.30;;;6.50;99.90;;;;;;4956255;28;20245;-78
2021/03/08 07:11:34;;;;;;;12.70;11.40;;;6.90;99.90;;;;;;4952251;28;20229;-77
2021/03/08 07:14:01;;;;;;;12.07;11.02;;;7.30;99.90;;;;;;4955598;28;20359;-77
2021/03/08 07:16:38;;;;;;;12.23;10.98;;;7.60;99.90;;;;;;4951415;28;20221;-78
2021/03/08 07:19:05;;;;;;;11.70;10.65;;;7.80;99.90;;;;;;4955396;28;20232;-78
2021/03/08 07:21:32;;;;;;;14.93;12.43;;;8.10;99.90;;;;;;4952169;28;20240;-78
2021/03/08 07:24:10;;;;;;;13.05;11.85;;;8.30;99.90;;;;;;4953886;28;20573;-78
2021/03/08 07:26:38;;;;;;;11.05;10.05;;;8.30;99.90;;;;;;4960661;28;20245;-78
2021/03/08 07:29:12;;;;;;;12.07;10.95;;;8.40;99.90;;;;;;4958519;28;20629;-78
2021/03/08 07:31:41;;;;;;;11.50;10.35;;;8.40;99.90;;;;;;4955950;28;20692;-78
2021/03/08 07:34:09;;;;;;;11.70;10.50;;;8.60;99.90;;;;;;4959483;28;20232;-78
2021/03/08 07:36:37;;;;;;;11.73;10.63;;;8.60;99.90;;;;;;4958559;28;21291;-79
2021/03/08 07:39:12;;;;;;;11.55;10.45;;;8.60;99.90;;;;;;4962164;28;20275;-79
2021/03/08 07:41:51;;;;;;;11.30;10.20;;;8.60;99.90;;;;;;4955224;28;20225;-77
2021/03/08 07:44:23;;;;;;;10.77;9.77;;;8.70;99.90;;;;;;4955295;28;20264;-78
2021/03/08 07:46:51;;;;;;;11.55;9.95;;;8.70;99.90;;;;;;4956515;28;20226;-78
2021/03/08 07:49:32;;;;;;;11.15;10.05;;;8.80;99.90;;;;;;4955489;28;20881;-78
2021/03/08 07:52:06;;;;;;;10.63;9.60;;;9.10;99.90;;;;;;4961109;28;20221;-78
2021/03/08 07:54:54;;;;;;;12.40;11.15;;;9.40;99.90;;;;;;4959573;28;20229;-79
2021/03/08 07:57:22;;;;;;;10.50;9.38;;;9.80;99.90;;;;;;4965447;28;20209;-78
2021/03/08 07:59:49;;;;;;;12.52;10.40;;;10.00;99.90;;;;;;4963450;28;20371;-79
2021/03/08 08:02:16;;;;;;;10.40;9.50;;;10.00;99.90;;;;;;4963447;28;20226;-80
2021/03/08 08:04:43;;;;;;;10.32;9.27;;;10.20;99.90;;;;;;4960360;28;20229;-79
2021/03/08 08:07:12;;;;;;;10.52;9.57;;;10.50;99.90;;;;;;4965370;28;20280;-79
2021/03/08 08:09:40;;;;;;;11.30;10.23;;;10.80;99.90;;;;;;4966100;28;20221;-80
2021/03/08 08:12:11;;;;;;;11.98;10.73;;;11.00;99.90;;;;;;4965700;28;20232;-80
2021/03/08 08:14:40;;;;;;;12.25;11.05;;;11.00;99.90;;;;;;4967511;28;20810;-81
2021/03/08 08:17:09;;;;;;;12.20;11.00;;;11.10;99.90;;;;;;4970199;28;20221;-82
2021/03/08 08:19:40;;;;;;;11.88;10.73;;;11.10;99.90;;;;;;4968348;28;20225;-79
2021/03/08 08:22:14;;;;;;;11.05;10.05;;;11.10;99.90;;;;;;4954895;28;20229;-79
2021/03/08 08:24:43;;;;;;;10.93;9.93;;;11.20;99.90;;;;;;4956520;28;20253;-79
2021/03/08 08:27:11;;;;;;;11.25;10.25;;;11.20;99.90;;;;;;4957474;28;20259;-79
2021/03/08 08:29:40;;;;;;;12.48;11.25;;;11.20;99.90;;;;;;4958217;28;20699;-78
2021/03/08 08:32:08;;;;;;;11.27;9.60;;;11.60;99.90;;;;;;4961067;28;20241;-79
2021/03/08 08:34:37;;;;;;;10.75;9.65;;;11.70;99.90;;;;;;4960224;28;20248;-79
2021/03/08 08:37:12;;;;;;;11.35;10.27;;;11.70;99.90;;;;;;4962782;28;20234;-79
2021/03/08 08:39:40;;;;;;;12.10;10.80;;;12.00;99.90;;;;;;4960464;28;20221;-79
2021/03/08 08:42:18;;;;;;;13.88;10.95;;;12.20;99.90;;;;;;4955730;28;20233;-79
2021/03/08 08:44:45;;;;;;;11.88;10.73;;;12.30;99.90;;;;;;4969192;28;20221;-81
2021/03/08 08:47:31;;;;;;;12.57;11.20;;;12.30;99.90;;;;;;4972775;28;20216;-81
2021/03/08 08:50:04;;;;;;;12.05;10.85;;;12.30;99.90;;;;;;4975272;28;20222;-81
2021/03/08 08:53:01;;;;;;;12.00;10.82;;;12.20;99.90;;;;;;4978920;28;20355;-81
2021/03/08 08:55:48;;;;;;;11.05;9.95;;;12.40;99.90;;;;;;4932489;28;20221;-81
2021/03/08 08:58:28;;;;;;;11.20;10.13;;;12.30;99.90;;;;;;4975948;28;20229;-80
2021/03/08 09:01:32;;;;;;;11.10;9.88;;;12.20;99.90;;;;;;4971424;28;20229;-80
2021/03/08 09:04:01;;;;;;;9.77;8.80;;;12.10;99.90;;;;;;4975564;28;20229;-81
2021/03/08 09:06:45;;;;;;;9.82;8.93;;;12.10;99.90;;;;;;4983582;28;20295;-80
2021/03/08 09:09:14;;;;;;;10.50;9.50;;;12.30;99.90;;;;;;4963053;28;20221;-80
2021/03/08 09:11:47;;;;;;;11.10;10.00;;;12.60;99.90;;;;;;4977679;28;20218;-81
2021/03/08 09:14:33;;;;;;;10.45;9.35;;;13.10;99.90;;;;;;4978050;28;20238;-81
2021/03/08 09:17:16;;;;;;;10.75;9.45;;;13.20;99.90;;;;;;4974540;28;20237;-81
2021/03/08 09:19:45;;;;;;;10.85;9.75;;;13.10;99.90;;;;;;4976946;28;20252;-81
2021/03/08 09:22:47;;;;;;;11.25;10.13;;;12.70;99.90;;;;;;4977345;28;20228;-80
2021/03/08 09:25:19;;;;;;;11.52;10.40;;;12.40;99.90;;;;;;4930511;28;20233;-80
2021/03/08 09:27:47;;;;;;;10.82;9.73;;;12.60;99.90;;;;;;4975551;28;20226;-80
2021/03/08 09:30:16;;;;;;;10.68;9.68;;;12.90;99.90;;;;;;4977147;28;20230;-80
2021/03/08 09:32:53;;;;;;;12.60;9.52;;;13.20;99.90;;;;;;4974490;28;20231;-80
2021/03/08 09:35:21;;;;;;;11.15;9.48;;;13.20;99.90;;;;;;4975509;28;20228;-81
2021/03/08 09:37:50;;;;;;;12.48;9.52;;;13.30;99.90;;;;;;4981853;28;20222;-79
2021/03/08 09:40:20;;;;;;;11.90;10.07;;;13.30;99.90;;;;;;4979684;28;20321;-82
2021/03/08 09:42:47;;;;;;;10.07;9.07;;;13.40;99.90;;;;;;4987157;28;20229;-82
2021/03/08 09:45:26;;;;;;;11.30;10.15;;;13.40;99.90;;;;;;4972705;28;20297;-82
2021/03/08 09:47:55;;;;;;;11.98;10.77;;;13.60;99.90;;;;;;4968210;28;20230;-82
2021/03/08 09:50:27;;;;;;;10.25;9.25;;;13.70;99.70;;;;;;4969094;28;20643;-81
2021/03/08 09:52:56;;;;;;;9.65;8.75;;;13.60;99.90;;;;;;4975506;28;20286;-81
2021/03/08 09:55:26;;;;;;;9.88;8.90;;;13.50;99.90;;;;;;4970160;28;20233;-81
2021/03/08 09:57:53;;;;;;;10.50;9.23;;;13.80;99.90;;;;;;4969140;28;20286;-82
2021/03/08 10:00:28;;;;;;;11.80;9.30;;;14.10;99.30;;;;;;4962413;28;20241;-82
2021/03/08 10:03:02;;;;;;;10.10;9.10;;;14.20;99.20;;;;;;4989809;28;20739;-79
2021/03/08 10:05:47;;;;;;;11.02;9.88;;;14.20;98.80;;;;;;4957186;28;20234;-81
2021/03/08 10:08:15;;;;;;;9.63;8.63;;;14.40;98.50;;;;;;4986311;28;20252;-81
2021/03/08 10:10:47;;;;;;;9.55;8.57;;;14.80;98.60;;;;;;4962300;28;20271;-81
2021/03/08 10:13:15;;;;;;;9.98;8.95;;;14.90;98.20;;;;;;4974380;28;20248;-81
2021/03/08 10:15:44;;;;;;;9.57;8.70;;;14.50;97.40;;;;;;4959855;28;20232;-81
2021/03/08 10:18:12;;;;;;;9.82;8.82;;;14.30;97.70;;;;;;4991896;28;20217;-83
2021/03/08 10:20:48;;;;;;;9.75;8.75;;;14.10;98.10;;;;;;4990316;28;20221;-82
2021/03/08 10:23:25;;;;;;;9.50;8.50;;;14.10;98.40;;;;;;4992890;28;20220;-81
2021/03/08 10:26:02;;;;;;;11.23;10.02;;;14.30;98.00;;;;;;4984296;28;20232;-82
2021/03/08 10:28:36;;;;;;;9.90;8.68;;;14.40;97.60;;;;;;4968396;28;20244;-82
2021/03/08 10:31:07;;;;;;;10.63;8.85;;;14.50;97.50;;;;;;4982057;28;20260;-82
2021/03/08 10:33:35;;;;;;;10.50;9.50;;;14.50;97.50;;;;;;4969924;28;20288;-83
2021/03/08 10:36:02;;;;;;;10.95;9.05;;;14.50;97.10;;;;;;4966505;28;20261;-81
2021/03/08 10:38:32;;;;;;;9.43;8.52;;;14.60;97.40;;;;;;4973998;28;20720;-82
2021/03/08 10:41:01;;;;;;;9.60;8.10;;;14.50;97.10;;;;;;4956491;28;20249;-82
2021/03/08 10:43:30;;;;;;;9.52;8.63;;;14.50;97.60;;;;;;4964574;28;20233;-81
2021/03/08 10:45:59;;;;;;;9.98;8.77;;;14.50;97.40;;;;;;4975172;28;20244;-78
2021/03/08 10:48:27;;;;;;;9.85;8.75;;;14.60;97.20;;;;;;4972493;28;20230;-80
2021/03/08 10:50:56;;;;;;;10.38;7.97;;;14.80;97.90;;;;;;4965002;28;20225;-81
2021/03/08 10:53:25;;;;;;;8.40;7.60;;;15.00;97.80;;;;;;4972886;28;20260;-80
2021/03/08 10:55:55;;;;;;;9.35;8.38;;;15.40;97.50;;;;;;4973647;28;20221;-80
2021/03/08 10:58:38;;;;;;;9.45;8.50;;;15.70;96.90;;;;;;4972367;28;20320;-81
2021/03/08 11:01:08;;;;;;;10.30;8.40;;;15.90;95.60;;;;;;4962780;28;20229;-80
2021/03/08 11:03:36;;;;;;;8.30;7.55;;;16.00;95.60;;;;;;4981726;28;20226;-80
2021/03/08 11:06:04;;;;;;;9.32;8.38;;;16.00;96.00;;;;;;4972636;28;20236;-80
2021/03/08 11:08:31;;;;;;;9.00;8.02;;;15.90;95.80;;;;;;4972503;28;20225;-81
2021/03/08 11:10:58;;;;;;;8.70;7.80;;;15.70;95.40;;;;;;4972717;28;20237;-81
2021/03/08 11:13:32;;;;;;;7.72;7.03;;;15.60;95.40;;;;;;4971746;28;20615;-80
2021/03/08 11:16:07;;;;;;;10.88;8.52;;;15.60;95.80;;;;;;4968062;28;20233;-80
2021/03/08 11:18:34;;;;;;;9.18;7.25;;;15.70;95.30;;;;;;4970854;28;20221;-80
2021/03/08 11:21:24;;;;;;;11.55;8.10;;;15.60;95.00;;;;;;4969848;28;20767;-80
2021/03/08 11:23:52;;;;;;;7.85;7.15;;;15.40;94.70;;;;;;4967838;28;20224;-80
2021/03/08 11:26:19;;;;;;;8.45;6.78;;;15.30;95.60;;;;;;4977439;28;20264;-80
2021/03/08 11:28:49;;;;;;;9.15;7.75;;;15.50;95.10;;;;;;4973919;28;20233;-81
2021/03/08 11:31:25;;;;;;;8.55;7.70;;;15.30;95.40;;;;;;4971444;28;20225;-80
2021/03/08 11:33:54;;;;;;;7.03;6.32;;;15.20;94.50;;;;;;4971588;28;20247;-81
2021/03/08 11:36:30;;;;;;;7.93;7.13;;;15.30;94.70;;;;;;4966046;28;20221;-81
2021/03/08 11:39:01;;;;;;;7.88;6.95;;;15.70;94.10;;;;;;4972422;28;20344;-82
2021/03/08 11:41:28;;;;;;;9.90;7.53;;;16.00;94.00;;;;;;4974931;28;20234;-81
2021/03/08 11:43:55;;;;;;;7.70;6.97;;;16.00;93.70;;;;;;4969671;28;20240;-81
2021/03/08 11:46:22;;;;;;;7.95;7.00;;;15.90;93.70;;;;;;4981855;28;20228;-81
2021/03/08 11:48:49;;;;;;;8.20;7.13;;;16.00;93.10;;;;;;4968347;28;20233;-81
2021/03/08 11:51:19;;;;;;;7.20;6.55;;;15.90;93.40;;;;;;4974856;28;20217;-81
2021/03/08 11:53:46;;;;;;;7.53;6.78;;;15.70;94.10;;;;;;4970097;28;20230;-80
2021/03/08 11:56:13;;;;;;;7.05;6.35;;;15.80;94.20;;;;;;4973189;28;20233;-79
2021/03/08 11:58:40;;;;;;;7.85;6.78;;;16.20;94.30;;;;;;4971663;28;21056;-80
2021/03/08 12:01:06;;;;;;;7.50;6.82;;;16.50;93.40;;;;;;4963219;28;20229;-79
2021/03/08 12:03:41;;;;;;;7.53;6.35;;;16.20;92.90;;;;;;4973307;28;20233;-80
2021/03/08 12:06:08;;;;;;;7.57;6.80;;;16.20;93.20;;;;;;4965013;28;20251;-80
2021/03/08 12:08:35;;;;;;;9.02;7.10;;;16.10;93.10;;;;;;4969792;28;20266;-80
2021/03/08 12:11:04;;;;;;;7.50;6.57;;;16.20;93.30;;;;;;4969547;28;20225;-80
2021/03/08 12:13:30;;;;;;;8.35;6.10;;;16.50;93.00;;;;;;4966387;28;20256;-81
2021/03/08 12:15:57;;;;;;;6.80;5.80;;;16.70;92.70;;;;;;4968712;28;20232;-79
2021/03/08 12:18:24;;;;;;;8.75;7.45;;;16.70;92.20;;;;;;4965563;28;20221;-79
2021/03/08 12:20:51;;;;;;;7.00;6.30;;;16.50;91.90;;;;;;4965136;28;20272;-80
2021/03/08 12:23:18;;;;;;;8.63;6.47;;;16.30;92.30;;;;;;4965352;28;20218;-79
2021/03/08 12:25:44;;;;;;;8.55;6.35;;;16.20;92.60;;;;;;4972310;28;20225;-79
2021/03/08 12:28:11;;;;;;;11.00;7.80;;;16.40;92.60;;;;;;4972367;28;20232;-80
2021/03/08 12:30:37;;;;;;;8.25;6.93;;;16.20;92.80;;;;;;4968104;28;20572;-80
2021/03/08 12:33:07;;;;;;;7.85;6.85;;;16.00;92.70;;;;;;4970740;28;20260;-80
2021/03/08 12:35:33;;;;;;;7.88;7.07;;;15.90;92.20;;;;;;4963528;28;20366;-79
2021/03/08 12:38:01;;;;;;;11.82;6.88;;;15.90;92.50;;;;;;4964795;28;20229;-80
2021/03/08 12:40:27;;;;;;;8.00;6.25;;;15.70;91.40;;;;;;4970293;28;20688;-79
2021/03/08 12:42:54;;;;;;;8.27;6.70;;;15.70;92.30;;;;;;4966083;28;20221;-79
2021/03/08 12:45:21;;;;;;;9.18;7.15;;;15.70;92.10;;;;;;4967668;28;20226;-80
2021/03/08 12:47:48;;;;;;;6.40;5.50;;;15.60;92.40;;;;;;4964139;28;20311;-80
2021/03/08 12:50:15;;;;;;;6.85;6.15;;;15.70;92.10;;;;;;4966917;28;20229;-79
2021/03/08 12:52:41;;;;;;;8.05;6.47;;;15.80;92.30;;;;;;4973558;28;20253;-81
2021/03/08 12:55:10;;;;;;;8.85;6.53;;;15.90;91.90;;;;;;4982383;28;20217;-81
2021/03/08 12:57:37;;;;;;;7.38;6.43;;;15.80;92.10;;;;;;4969151;28;20233;-81